Time;durP1;ratioP1;P1;durP2;ratioP2;P2;SDS_P1;SDS_P2;PMS_P1;PMS_P2;Temp;Humidity;BMP_temperature;BMP_pressure;BME280_temperature;BME280_humidity;BME280_pressure;Samples;Min_cycle;Max_cycle;Signal;HPM_P1;HPM_P2
2024/01/09 00:02:22;;;;;;;6.70;2.57;;;;;;;;;;10280099;28;20212;-67
2024/01/09 00:07:24;;;;;;;3.83;2.53;;;;;;;;;;10289532;28;20185;-66
2024/01/09 00:12:25;;;;;;;2.50;2.00;;;;;;;;;;10265406;28;20208;-67
2024/01/09 00:17:26;;;;;;;3.17;2.57;;;;;;;;;;10261370;28;20185;-67
2024/01/09 00:22:26;;;;;;;4.30;2.77;;;;;;;;;;10287689;28;20205;-68
2024/01/09 00:27:27;;;;;;;2.30;1.87;;;;;;;;;;10262896;28;20201;-67
2024/01/09 00:32:29;;;;;;;5.30;3.13;;;;;;;;;;10286747;28;20228;-67
2024/01/09 00:37:30;;;;;;;3.23;1.90;;;;;;;;;;10276209;28;20703;-67
2024/01/09 00:42:31;;;;;;;2.87;2.17;;;;;;;;;;10289340;28;20208;-67
2024/01/09 00:47:32;;;;;;;10.80;3.17;;;;;;;;;;10278769;28;20192;-67
2024/01/09 00:52:33;;;;;;;7.50;3.07;;;;;;;;;;10267740;28;20627;-67
2024/01/09 00:57:34;;;;;;;6.73;2.60;;;;;;;;;;10274501;28;20311;-67
2024/01/09 01:02:35;;;;;;;3.07;2.30;;;;;;;;;;10279011;28;20213;-67
2024/01/09 01:07:35;;;;;;;5.23;2.03;;;;;;;;;;10270642;28;20189;-68
2024/01/09 01:12:36;;;;;;;2.43;1.93;;;;;;;;;;10278996;28;20215;-67
2024/01/09 01:17:37;;;;;;;3.33;1.40;;;;;;;;;;10287576;28;20279;-67
2024/01/09 01:22:39;;;;;;;4.40;2.67;;;;;;;;;;10270812;28;20201;-67
2024/01/09 01:27:40;;;;;;;3.47;2.60;;;;;;;;;;10272248;28;20185;-66
2024/01/09 01:32:41;;;;;;;3.97;2.17;;;;;;;;;;10268672;28;20224;-66
2024/01/09 01:37:42;;;;;;;7.37;1.87;;;;;;;;;;10253851;28;20220;-66
2024/01/09 01:42:43;;;;;;;5.10;2.77;;;;;;;;;;10273875;28;20213;-66
2024/01/09 01:47:47;;;;;;;5.17;2.53;;;;;;;;;;10270880;28;20276;-66
2024/01/09 01:52:48;;;;;;;3.57;1.80;;;;;;;;;;10268020;28;20221;-66
2024/01/09 01:57:50;;;;;;;2.93;2.13;;;;;;;;;;10265009;28;20221;-66
2024/01/09 02:02:53;;;;;;;1.63;1.37;;;;;;;;;;10266766;28;20213;-66
2024/01/09 02:07:54;;;;;;;2.40;1.30;;;;;;;;;;10275019;28;20595;-66
2024/01/09 02:12:55;;;;;;;1.60;1.57;;;;;;;;;;10261578;28;20221;-66
2024/01/09 02:17:56;;;;;;;2.27;1.43;;;;;;;;;;10266286;28;20690;-66
2024/01/09 02:22:57;;;;;;;6.63;2.10;;;;;;;;;;10261905;28;20342;-66
2024/01/09 02:28:07;;;;;;;5.20;1.67;;;;;;;;;;10274574;28;20220;-66
2024/01/09 02:33:08;;;;;;;3.80;1.63;;;;;;;;;;10272484;28;20614;-66
2024/01/09 02:38:09;;;;;;;3.60;2.40;;;;;;;;;;10276769;28;20462;-66
2024/01/09 02:43:10;;;;;;;2.37;2.10;;;;;;;;;;10258801;28;20213;-66
2024/01/09 02:48:11;;;;;;;6.00;1.90;;;;;;;;;;10264098;28;20627;-68
2024/01/09 02:53:12;;;;;;;2.17;1.87;;;;;;;;;;10255150;28;20547;-67
2024/01/09 02:58:13;;;;;;;1.40;1.33;;;;;;;;;;10280394;28;20217;-67
2024/01/09 03:03:14;;;;;;;2.53;1.97;;;;;;;;;;10268930;28;20305;-68
2024/01/09 03:08:15;;;;;;;2.50;1.70;;;;;;;;;;10260477;28;20613;-68
2024/01/09 03:13:16;;;;;;;2.00;1.30;;;;;;;;;;10268367;28;21300;-67
2024/01/09 03:18:17;;;;;;;3.53;1.73;;;;;;;;;;10266583;28;20256;-67
2024/01/09 03:23:18;;;;;;;4.53;2.13;;;;;;;;;;10279730;28;20209;-67
2024/01/09 03:28:19;;;;;;;5.10;2.13;;;;;;;;;;10258700;28;20217;-67
2024/01/09 03:33:20;;;;;;;6.00;1.80;;;;;;;;;;10286988;28;20225;-67
2024/01/09 03:38:21;;;;;;;1.40;1.30;;;;;;;;;;10268481;28;20210;-67
2024/01/09 03:43:22;;;;;;;7.17;1.50;;;;;;;;;;10266629;28;20324;-67
2024/01/09 03:48:23;;;;;;;4.50;2.07;;;;;;;;;;10276611;28;20185;-68
2024/01/09 03:53:24;;;;;;;6.67;2.20;;;;;;;;;;10268764;28;20210;-67
2024/01/09 03:58:25;;;;;;;2.73;2.53;;;;;;;;;;10281195;28;20217;-68
2024/01/09 04:03:26;;;;;;;2.63;2.40;;;;;;;;;;10275590;28;20213;-68
2024/01/09 04:08:27;;;;;;;10.00;2.47;;;;;;;;;;10256274;28;20201;-67
2024/01/09 04:13:28;;;;;;;2.37;1.83;;;;;;;;;;10283254;28;20205;-67
2024/01/09 04:18:29;;;;;;;1.07;0.97;;;;;;;;;;10271403;28;20300;-67
2024/01/09 04:23:31;;;;;;;5.07;1.80;;;;;;;;;;10280015;28;20212;-66
2024/01/09 04:28:32;;;;;;;3.67;1.30;;;;;;;;;;10263319;28;20961;-66
2024/01/09 04:33:33;;;;;;;7.13;1.90;;;;;;;;;;10267030;28;20217;-66
2024/01/09 04:38:34;;;;;;;4.17;1.70;;;;;;;;;;10269329;28;20205;-66
2024/01/09 04:43:36;;;;;;;2.17;1.67;;;;;;;;;;10269784;28;20217;-66
2024/01/09 04:48:37;;;;;;;6.47;1.67;;;;;;;;;;10283621;28;20656;-67
2024/01/09 04:53:38;;;;;;;1.57;1.33;;;;;;;;;;10275155;28;20213;-66
2024/01/09 04:58:39;;;;;;;5.23;2.30;;;;;;;;;;10270507;28;20223;-66
2024/01/09 05:03:45;;;;;;;3.33;2.40;;;;;;;;;;10266782;28;20213;-69
2024/01/09 05:08:47;;;;;;;9.37;2.07;;;;;;;;;;10267202;28;20193;-66
2024/01/09 05:13:48;;;;;;;2.97;1.70;;;;;;;;;;10268697;28;20213;-67
2024/01/09 05:18:49;;;;;;;4.47;2.67;;;;;;;;;;10268098;28;20723;-66
2024/01/09 05:23:50;;;;;;;4.77;1.53;;;;;;;;;;10282514;28;20320;-69
2024/01/09 05:28:51;;;;;;;4.07;2.13;;;;;;;;;;10273601;28;20228;-66
2024/01/09 05:33:52;;;;;;;2.07;1.43;;;;;;;;;;10272196;28;20299;-69
2024/01/09 05:38:53;;;;;;;4.20;2.60;;;;;;;;;;10263685;28;20224;-66
2024/01/09 05:43:54;;;;;;;3.27;2.03;;;;;;;;;;10269702;28;20240;-66
2024/01/09 05:48:55;;;;;;;2.23;1.23;;;;;;;;;;10254911;28;20198;-66
2024/01/09 05:53:56;;;;;;;5.17;2.87;;;;;;;;;;10261308;28;20216;-67
2024/01/09 05:58:57;;;;;;;4.83;3.17;;;;;;;;;;10273329;28;20270;-66
2024/01/09 06:03:58;;;;;;;3.17;2.73;;;;;;;;;;10261900;28;20229;-66
2024/01/09 06:08:59;;;;;;;9.67;4.77;;;;;;;;;;10270331;28;20200;-67
2024/01/09 06:14:00;;;;;;;5.77;4.40;;;;;;;;;;10257453;28;20210;-66
2024/01/09 06:19:01;;;;;;;16.63;7.10;;;;;;;;;;10260989;28;20738;-66
2024/01/09 06:24:02;;;;;;;18.63;9.23;;;;;;;;;;10255715;28;20744;-66
2024/01/09 06:29:05;;;;;;;17.40;7.13;;;;;;;;;;10281652;28;20232;-66
2024/01/09 06:34:06;;;;;;;43.10;14.90;;;;;;;;;;10279708;28;20221;-66
2024/01/09 06:39:07;;;;;;;4.37;2.13;;;;;;;;;;10273722;28;20261;-66
2024/01/09 06:44:08;;;;;;;8.17;4.00;;;;;;;;;;10272582;28;20212;-66
2024/01/09 06:49:09;;;;;;;3.13;2.93;;;;;;;;;;10266640;28;20253;-66
2024/01/09 06:54:10;;;;;;;4.03;3.33;;;;;;;;;;10256235;28;20221;-66
2024/01/09 06:59:11;;;;;;;5.80;2.80;;;;;;;;;;10259373;28;20718;-66
2024/01/09 07:04:13;;;;;;;6.40;2.97;;;;;;;;;;10274368;28;20387;-66
2024/01/09 07:09:14;;;;;;;2.53;2.40;;;;;;;;;;10274419;28;20198;-66
2024/01/09 07:14:15;;;;;;;4.37;2.73;;;;;;;;;;10269573;28;20221;-66
2024/01/09 07:19:16;;;;;;;5.43;2.93;;;;;;;;;;10300545;28;20353;-66
2024/01/09 07:24:17;;;;;;;4.03;2.83;;;;;;;;;;10268503;28;20221;-66
2024/01/09 07:29:19;;;;;;;6.87;3.70;;;;;;;;;;10280458;28;20245;-66
2024/01/09 07:34:20;;;;;;;2.60;2.40;;;;;;;;;;10295545;28;20296;-66
2024/01/09 07:39:21;;;;;;;6.57;2.60;;;;;;;;;;10274430;28;20205;-66
2024/01/09 07:44:22;;;;;;;4.90;2.87;;;;;;;;;;10292747;28;20200;-66
2024/01/09 07:49:23;;;;;;;3.90;2.30;;;;;;;;;;10268024;28;20272;-66
2024/01/09 07:54:24;;;;;;;2.63;1.90;;;;;;;;;;10283348;28;20593;-66
2024/01/09 07:59:25;;;;;;;4.03;2.37;;;;;;;;;;10266985;28;20261;-65
2024/01/09 08:04:26;;;;;;;2.63;2.40;;;;;;;;;;10281194;28;20247;-65
2024/01/09 08:09:28;;;;;;;2.83;2.63;;;;;;;;;;10275127;28;20567;-66
2024/01/09 08:14:29;;;;;;;2.20;2.00;;;;;;;;;;10276574;28;20205;-65
2024/01/09 08:19:30;;;;;;;9.73;3.57;;;;;;;;;;10281536;28;20212;-66
2024/01/09 08:24:32;;;;;;;8.87;3.60;;;;;;;;;;10277196;28;20288;-66
2024/01/09 08:29:33;;;;;;;3.53;3.07;;;;;;;;;;10273758;28;20595;-66
2024/01/09 08:34:34;;;;;;;3.23;2.23;;;;;;;;;;10269791;28;20232;-66
2024/01/09 08:39:35;;;;;;;3.93;2.63;;;;;;;;;;10258771;28;20212;-66
2024/01/09 08:44:36;;;;;;;4.77;2.83;;;;;;;;;;10273995;28;20204;-66
2024/01/09 08:49:37;;;;;;;8.53;2.90;;;;;;;;;;10264025;28;20244;-66
2024/01/09 08:54:38;;;;;;;3.27;3.00;;;;;;;;;;10288113;28;20301;-66
2024/01/09 08:59:39;;;;;;;5.07;3.10;;;;;;;;;;10279028;28;20210;-66
2024/01/09 09:04:41;;;;;;;6.10;3.43;;;;;;;;;;10262902;28;20296;-66
2024/01/09 09:09:42;;;;;;;5.37;2.40;;;;;;;;;;10280744;28;20212;-66
2024/01/09 09:14:43;;;;;;;9.03;2.47;;;;;;;;;;10274925;28;20339;-66
2024/01/09 09:19:43;;;;;;;6.47;3.07;;;;;;;;;;10279923;28;20209;-68
2024/01/09 09:24:44;;;;;;;5.73;3.93;;;;;;;;;;10274606;28;20189;-66
2024/01/09 09:29:45;;;;;;;12.60;5.80;;;;;;;;;;10277659;28;20407;-66
2024/01/09 09:34:46;;;;;;;9.63;5.63;;;;;;;;;;10282251;28;20220;-67
2024/01/09 09:39:47;;;;;;;5.60;4.00;;;;;;;;;;10290289;28;20209;-66
2024/01/09 09:44:53;;;;;;;7.00;2.83;;;;;;;;;;10293815;28;20549;-67
2024/01/09 09:49:54;;;;;;;12.07;3.70;;;;;;;;;;10266873;28;20199;-66
2024/01/09 09:54:55;;;;;;;7.17;4.03;;;;;;;;;;10270505;28;20193;-66
2024/01/09 09:59:56;;;;;;;9.27;4.13;;;;;;;;;;10295335;28;20221;-67
2024/01/09 10:05:01;;;;;;;14.87;5.57;;;;;;;;;;10294218;28;20683;-66
2024/01/09 10:10:05;;;;;;;10.40;5.43;;;;;;;;;;10276450;28;20204;-67
2024/01/09 10:15:12;;;;;;;12.27;5.13;;;;;;;;;;10276364;28;20193;-67
2024/01/09 10:20:14;;;;;;;10.50;5.27;;;;;;;;;;10287085;28;20213;-66
2024/01/09 10:25:17;;;;;;;8.07;5.03;;;;;;;;;;10275973;28;20209;-67
2024/01/09 10:30:19;;;;;;;11.05;5.35;;;;;;;;;;10286081;28;20225;-67
2024/01/09 10:35:20;;;;;;;8.65;4.57;;;;;;;;;;10295305;28;20687;-68
2024/01/09 10:40:26;;;;;;;11.95;6.40;;;;;;;;;;10290701;28;20216;-67
2024/01/09 10:45:27;;;;;;;7.82;4.32;;;;;;;;;;10295899;28;20698;-69
2024/01/09 10:50:28;;;;;;;5.00;4.25;;;;;;;;;;10275895;28;20217;-67
2024/01/09 10:55:30;;;;;;;8.75;4.40;;;;;;;;;;10274558;28;20208;-67
2024/01/09 11:00:31;;;;;;;6.65;4.80;;;;;;;;;;10296627;28;20688;-68
2024/01/09 11:05:32;;;;;;;6.97;4.60;;;;;;;;;;10300887;28;20771;-68
2024/01/09 11:10:33;;;;;;;9.93;4.47;;;;;;;;;;10276694;28;20305;-69
2024/01/09 11:15:44;;;;;;;6.40;4.03;;;;;;;;;;10274516;28;20259;-69
2024/01/09 11:20:45;;;;;;;13.70;4.72;;;;;;;;;;10281307;28;20216;-69
2024/01/09 11:25:51;;;;;;;9.98;4.82;;;;;;;;;;10272874;28;20196;-69
2024/01/09 11:30:53;;;;;;;9.45;4.80;;;;;;;;;;10286405;28;20699;-69
2024/01/09 11:35:55;;;;;;;8.95;4.93;;;;;;;;;;10272087;28;20605;-69
2024/01/09 11:40:56;;;;;;;9.20;5.22;;;;;;;;;;10278497;28;20224;-69
2024/01/09 11:45:57;;;;;;;13.27;4.78;;;;;;;;;;10274250;28;20181;-69
2024/01/09 11:50:58;;;;;;;7.55;4.57;;;;;;;;;;10271991;28;20219;-69
2024/01/09 11:55:59;;;;;;;7.00;4.38;;;;;;;;;;10271980;28;20252;-70
2024/01/09 12:01:03;;;;;;;9.13;4.95;;;;;;;;;;10267231;28;20563;-70
2024/01/09 12:06:05;;;;;;;6.38;4.35;;;;;;;;;;10280372;28;20216;-71
2024/01/09 12:11:06;;;;;;;5.78;4.53;;;;;;;;;;10271456;28;21716;-69
2024/01/09 12:16:19;;;;;;;6.55;5.13;;;;;;;;;;10271145;28;20286;-69
2024/01/09 12:21:20;;;;;;;8.02;4.80;;;;;;;;;;10277784;28;20209;-69
2024/01/09 12:26:23;;;;;;;8.43;5.13;;;;;;;;;;10264679;28;20195;-69
2024/01/09 12:31:24;;;;;;;6.55;4.25;;;;;;;;;;10272918;28;20229;-68
2024/01/09 12:36:27;;;;;;;8.10;3.88;;;;;;;;;;10279235;28;20427;-68
2024/01/09 12:41:29;;;;;;;14.82;4.80;;;;;;;;;;10269229;28;20241;-68
2024/01/09 12:46:30;;;;;;;7.78;4.28;;;;;;;;;;10284853;28;20909;-68
2024/01/09 12:51:32;;;;;;;5.20;4.10;;;;;;;;;;10281078;28;20220;-68
2024/01/09 12:56:34;;;;;;;13.57;4.22;;;;;;;;;;10265884;28;20256;-68
2024/01/09 13:01:35;;;;;;;7.65;3.80;;;;;;;;;;10269504;28;20233;-68
2024/01/09 13:06:36;;;;;;;7.45;3.38;;;;;;;;;;10278477;28;20208;-68
2024/01/09 13:11:42;;;;;;;7.22;3.92;;;;;;;;;;10269715;28;20217;-68
2024/01/09 13:16:43;;;;;;;3.60;2.97;;;;;;;;;;10271147;28;20186;-68
2024/01/09 13:21:44;;;;;;;8.77;4.18;;;;;;;;;;10270176;28;20228;-68
2024/01/09 13:26:45;;;;;;;4.78;3.10;;;;;;;;;;10286381;28;20602;-68
2024/01/09 13:31:46;;;;;;;8.50;4.07;;;;;;;;;;10272503;28;20227;-68
2024/01/09 13:36:48;;;;;;;5.17;3.73;;;;;;;;;;10274347;28;21114;-67
2024/01/09 13:41:49;;;;;;;7.53;3.78;;;;;;;;;;10270172;28;20715;-68
2024/01/09 13:46:51;;;;;;;8.50;4.07;;;;;;;;;;10268362;28;20194;-67
2024/01/09 13:51:53;;;;;;;6.50;3.93;;;;;;;;;;10269056;28;20208;-67
2024/01/09 13:56:54;;;;;;;4.13;3.00;;;;;;;;;;10269826;28;20283;-67
2024/01/09 14:01:55;;;;;;;5.17;3.10;;;;;;;;;;10263924;28;20222;-67
2024/01/09 14:06:57;;;;;;;5.20;3.00;;;;;;;;;;10277339;28;20676;-67
2024/01/09 14:11:57;;;;;;;7.07;3.70;;;;;;;;;;10267439;28;20232;-67
2024/01/09 14:16:58;;;;;;;4.77;3.00;;;;;;;;;;10273317;28;20613;-67
2024/01/09 14:21:59;;;;;;;11.98;4.07;;;;;;;;;;10297970;28;20224;-67
2024/01/09 14:27:01;;;;;;;7.47;3.07;;;;;;;;;;10286696;28;20186;-67
2024/01/09 14:32:02;;;;;;;5.30;3.20;;;;;;;;;;10270318;28;20256;-68
2024/01/09 14:37:03;;;;;;;4.53;3.73;;;;;;;;;;10273741;28;20285;-67
2024/01/09 14:42:04;;;;;;;6.77;3.43;;;;;;;;;;10278667;28;20241;-67
2024/01/09 14:47:05;;;;;;;3.10;2.47;;;;;;;;;;10277807;28;20639;-68
2024/01/09 14:52:06;;;;;;;5.43;2.33;;;;;;;;;;10277222;28;20304;-67
2024/01/09 14:57:08;;;;;;;4.57;3.80;;;;;;;;;;10255546;28;20552;-67
2024/01/09 15:02:09;;;;;;;7.40;3.97;;;;;;;;;;10263358;28;20249;-67
2024/01/09 15:07:10;;;;;;;9.70;3.10;;;;;;;;;;10276289;28;20716;-68
2024/01/09 15:12:11;;;;;;;6.93;2.70;;;;;;;;;;10269874;28;20221;-66
2024/01/09 15:17:12;;;;;;;8.17;3.23;;;;;;;;;;10281206;28;20268;-67
2024/01/09 15:22:16;;;;;;;4.87;2.73;;;;;;;;;;10269897;28;20249;-67
2024/01/09 15:27:17;;;;;;;4.70;2.93;;;;;;;;;;10261387;28;20566;-68
2024/01/09 15:32:18;;;;;;;7.43;4.07;;;;;;;;;;10266059;28;20223;-68
2024/01/09 15:37:19;;;;;;;5.93;3.30;;;;;;;;;;10254806;28;20188;-67
2024/01/09 15:42:20;;;;;;;5.73;2.97;;;;;;;;;;10253922;28;20228;-68
2024/01/09 15:47:21;;;;;;;6.37;2.53;;;;;;;;;;10257655;28;20194;-68
2024/01/09 15:52:22;;;;;;;6.70;3.37;;;;;;;;;;10273725;28;20837;-68
2024/01/09 15:57:23;;;;;;;8.10;4.10;;;;;;;;;;10276354;28;20202;-68
2024/01/09 16:02:24;;;;;;;5.47;3.00;;;;;;;;;;10261523;28;20308;-68
2024/01/09 16:07:26;;;;;;;5.63;3.30;;;;;;;;;;10267643;28;20660;-67
2024/01/09 16:12:27;;;;;;;3.47;2.97;;;;;;;;;;10252999;28;20763;-68
2024/01/09 16:17:28;;;;;;;4.77;3.13;;;;;;;;;;10271130;28;20248;-68
2024/01/09 16:22:29;;;;;;;5.40;3.43;;;;;;;;;;10276496;28;20222;-68
2024/01/09 16:27:30;;;;;;;7.27;2.77;;;;;;;;;;10263011;28;20244;-68
2024/01/09 16:32:31;;;;;;;8.00;3.27;;;;;;;;;;10276325;28;20228;-68
2024/01/09 16:37:32;;;;;;;8.50;3.70;;;;;;;;;;10275615;28;20193;-68
2024/01/09 16:42:33;;;;;;;6.00;3.23;;;;;;;;;;10262802;28;20588;-68
2024/01/09 16:47:34;;;;;;;6.33;3.87;;;;;;;;;;10266766;28;20209;-67
2024/01/09 16:52:35;;;;;;;9.63;3.63;;;;;;;;;;10259867;28;20205;-68
2024/01/09 16:57:36;;;;;;;6.70;3.80;;;;;;;;;;10260338;28;20846;-68
2024/01/09 17:02:37;;;;;;;12.63;5.03;;;;;;;;;;10261639;28;20232;-68
2024/01/09 17:07:38;;;;;;;4.60;3.03;;;;;;;;;;10268860;28;20205;-68
2024/01/09 17:12:39;;;;;;;7.60;3.60;;;;;;;;;;10262210;28;20201;-68
2024/01/09 17:17:41;;;;;;;12.10;4.13;;;;;;;;;;10273456;28;20181;-68
2024/01/09 17:22:42;;;;;;;9.20;3.40;;;;;;;;;;10258185;28;20594;-68
2024/01/09 17:27:43;;;;;;;10.23;4.20;;;;;;;;;;10256803;28;20426;-68
2024/01/09 17:32:44;;;;;;;13.47;5.77;;;;;;;;;;10265607;28;20217;-68
2024/01/09 17:37:44;;;;;;;15.87;5.33;;;;;;;;;;10264922;28;20393;-68
2024/01/09 17:42:46;;;;;;;13.83;6.10;;;;;;;;;;10255940;28;20283;-68
2024/01/09 17:47:47;;;;;;;9.10;5.20;;;;;;;;;;10259608;28;20754;-68
2024/01/09 17:52:48;;;;;;;10.57;5.63;;;;;;;;;;10266465;28;20280;-68
2024/01/09 17:57:49;;;;;;;19.73;5.70;;;;;;;;;;10291950;28;20252;-68
2024/01/09 18:02:50;;;;;;;12.03;4.60;;;;;;;;;;10297576;28;20772;-68
2024/01/09 18:07:51;;;;;;;10.13;4.43;;;;;;;;;;10270293;28;20333;-68
2024/01/09 18:12:52;;;;;;;9.10;4.50;;;;;;;;;;10270648;28;20205;-68
2024/01/09 18:17:53;;;;;;;13.63;5.50;;;;;;;;;;10278834;28;20239;-68
2024/01/09 18:22:54;;;;;;;9.93;4.60;;;;;;;;;;10239146;28;20206;-68
2024/01/09 18:27:55;;;;;;;6.77;4.97;;;;;;;;;;10251511;28;20220;-68
2024/01/09 18:32:56;;;;;;;9.73;3.90;;;;;;;;;;10265723;28;20263;-69
2024/01/09 18:37:59;;;;;;;7.83;4.20;;;;;;;;;;10258928;28;20197;-68
2024/01/09 18:42:59;;;;;;;12.43;4.37;;;;;;;;;;10242934;28;20267;-68
2024/01/09 18:48:02;;;;;;;11.30;5.23;;;;;;;;;;10251941;28;20444;-68
2024/01/09 18:53:03;;;;;;;11.30;5.17;;;;;;;;;;10251264;28;20217;-68
2024/01/09 18:58:05;;;;;;;10.93;5.73;;;;;;;;;;10250929;28;20470;-68
2024/01/09 19:03:06;;;;;;;11.57;5.00;;;;;;;;;;10251368;28;20217;-68
2024/01/09 19:08:07;;;;;;;10.50;5.03;;;;;;;;;;10256714;28;20201;-68
2024/01/09 19:13:09;;;;;;;9.67;5.33;;;;;;;;;;10237630;28;20224;-68
2024/01/09 19:18:10;;;;;;;12.17;5.20;;;;;;;;;;10261308;28;20276;-68
2024/01/09 19:23:11;;;;;;;13.87;5.10;;;;;;;;;;10250970;28;20213;-68
2024/01/09 19:28:12;;;;;;;11.13;5.70;;;;;;;;;;10235923;28;20261;-68
2024/01/09 19:33:15;;;;;;;9.77;4.40;;;;;;;;;;10257165;28;20363;-68
2024/01/09 19:38:17;;;;;;;12.97;5.10;;;;;;;;;;10260940;28;20224;-67
2024/01/09 19:43:21;;;;;;;10.20;5.17;;;;;;;;;;10252685;28;20220;-68
2024/01/09 19:48:22;;;;;;;13.93;6.07;;;;;;;;;;10265522;28;20194;-68
2024/01/09 19:53:23;;;;;;;13.17;5.33;;;;;;;;;;10250267;28;20240;-67
2024/01/09 19:58:26;;;;;;;9.13;4.57;;;;;;;;;;10252605;28;20276;-68
2024/01/09 20:03:27;;;;;;;8.43;5.17;;;;;;;;;;10255323;28;20597;-68
2024/01/09 20:08:29;;;;;;;11.60;5.30;;;;;;;;;;10259181;28;20675;-68
2024/01/09 20:13:30;;;;;;;8.47;4.70;;;;;;;;;;10253950;28;20225;-68
2024/01/09 20:18:31;;;;;;;10.83;4.87;;;;;;;;;;10258083;28;20213;-67
2024/01/09 20:23:33;;;;;;;7.47;3.87;;;;;;;;;;10275974;28;20205;-68
2024/01/09 20:28:38;;;;;;;9.93;4.87;;;;;;;;;;10260196;28;20241;-68
2024/01/09 20:33:39;;;;;;;8.53;4.87;;;;;;;;;;10261360;28;20246;-68
2024/01/09 20:38:40;;;;;;;10.70;6.70;;;;;;;;;;10277338;28;20237;-68
2024/01/09 20:43:41;;;;;;;9.20;6.30;;;;;;;;;;10277873;28;20229;-68
2024/01/09 20:48:42;;;;;;;9.07;4.93;;;;;;;;;;10254672;28;20736;-67
2024/01/09 20:53:43;;;;;;;10.03;4.77;;;;;;;;;;10268645;28;20594;-67
2024/01/09 20:58:44;;;;;;;18.83;6.57;;;;;;;;;;10257654;28;20233;-68
2024/01/09 21:03:45;;;;;;;7.93;5.23;;;;;;;;;;10256664;28;20214;-67
2024/01/09 21:08:46;;;;;;;11.63;5.97;;;;;;;;;;10264446;28;20233;-67
2024/01/09 21:13:47;;;;;;;8.13;5.40;;;;;;;;;;10270219;28;20240;-67
2024/01/09 21:18:48;;;;;;;6.30;4.20;;;;;;;;;;10272894;28;20217;-67
2024/01/09 21:23:49;;;;;;;7.60;4.70;;;;;;;;;;10277158;28;20699;-67
2024/01/09 21:28:51;;;;;;;13.40;4.93;;;;;;;;;;10291102;28;20288;-69
2024/01/09 21:33:52;;;;;;;9.37;4.93;;;;;;;;;;10272577;28;20216;-67
2024/01/09 21:38:53;;;;;;;8.47;3.67;;;;;;;;;;10266383;28;20295;-67
2024/01/09 21:43:54;;;;;;;9.53;4.97;;;;;;;;;;10285508;28;20631;-67
2024/01/09 21:48:55;;;;;;;13.33;4.97;;;;;;;;;;10274456;28;20196;-67
2024/01/09 21:53:56;;;;;;;4.93;4.20;;;;;;;;;;10263989;28;20304;-67
2024/01/09 21:59:03;;;;;;;10.17;5.10;;;;;;;;;;10278335;28;20212;-68
2024/01/09 22:04:04;;;;;;;10.03;4.63;;;;;;;;;;10288171;28;20217;-67
2024/01/09 22:09:05;;;;;;;11.87;5.30;;;;;;;;;;10267913;28;20197;-67
2024/01/09 22:14:07;;;;;;;10.90;6.00;;;;;;;;;;10271928;28;20436;-67
2024/01/09 22:19:09;;;;;;;6.97;4.60;;;;;;;;;;10263226;28;20233;-67
2024/01/09 22:24:14;;;;;;;12.00;5.33;;;;;;;;;;10266577;28;20594;-68
2024/01/09 22:29:15;;;;;;;6.13;4.10;;;;;;;;;;10271561;28;20224;-68
2024/01/09 22:34:16;;;;;;;15.00;4.57;;;;;;;;;;10254399;28;20222;-68
2024/01/09 22:39:17;;;;;;;11.40;3.97;;;;;;;;;;10273252;28;20228;-67
2024/01/09 22:44:19;;;;;;;4.60;3.80;;;;;;;;;;10278639;28;20215;-66
2024/01/09 22:49:20;;;;;;;10.90;4.23;;;;;;;;;;10276023;28;20225;-66
2024/01/09 22:54:21;;;;;;;7.73;3.00;;;;;;;;;;10270628;28;20300;-66
2024/01/09 22:59:22;;;;;;;6.83;3.50;;;;;;;;;;10273192;28;20660;-65
2024/01/09 23:04:23;;;;;;;11.97;4.70;;;;;;;;;;10276799;28;20201;-66
2024/01/09 23:09:24;;;;;;;12.33;3.90;;;;;;;;;;10275000;28;20261;-66
2024/01/09 23:14:25;;;;;;;7.73;4.50;;;;;;;;;;10270059;28;20260;-65
2024/01/09 23:19:26;;;;;;;4.43;4.03;;;;;;;;;;10277380;28;20239;-66
2024/01/09 23:24:27;;;;;;;8.67;4.17;;;;;;;;;;10270009;28;20209;-66
2024/01/09 23:29:28;;;;;;;10.20;4.53;;;;;;;;;;10274908;28;20252;-65
2024/01/09 23:34:30;;;;;;;8.50;4.70;;;;;;;;;;10271747;28;20280;-66
2024/01/09 23:39:31;;;;;;;4.63;3.83;;;;;;;;;;10282737;28;20643;-65
2024/01/09 23:44:32;;;;;;;11.00;4.03;;;;;;;;;;10275692;28;20217;-66
2024/01/09 23:49:33;;;;;;;7.13;3.73;;;;;;;;;;10283914;28;20286;-65
2024/01/09 23:54:34;;;;;;;7.40;4.17;;;;;;;;;;10271371;28;20288;-65
2024/01/09 23:59:35;;;;;;;8.57;4.80;;;;;;;;;;10277124;28;20213;-66
